CZUM/ZUM METAR and TAF weather

Enter ICAO airport designator
Station Type Date Time Source
CZUM METAR 2018/04/23 11:00 UTC NOAA

CZUM 231100Z AUTO 26004KT 220V290 9SM CLR M02/M10 A3005 RMK SLP203


Station Type Date Time Source
CZUM Decoded METAR 2018/04/23 11:00 UTC NOAA

Churchill Falls, Nfld., Canada (CZUM) 53-33N 064-06W 440M
Apr 23, 2018 - 07:00 AM EDT / 2018.04.23 1100 UTC
Wind: from the W (260 degrees) at 5 MPH (4 KT) (direction variable):0
Visibility: 9 mile(s):0
Sky conditions: clear
Temperature: 28 F (-2 C)
Windchill: 23 F (-5 C):1
Dew Point: 14 F (-10 C)
Relative Humidity: 54%
Pressure (altimeter): 30.05 in. Hg (1017 hPa)
ob: CZUM 231100Z AUTO 26004KT 220V290 9SM CLR M02/M10 A3005 RMK SLP203
cycle: 11

Station Type Date Time Source
CZUM TAF 2018/04/23 08:39 UTC NOAA

TAF CZUM 230738Z 2308/2320 VRB03KT P6SM SKC
BECMG 2312/2314 27010G20KT
RMK FCST BASED ON AUTO OBS. NXT FCST BY 231400Z


Example: see airport list